Time;durP1;ratioP1;P1;durP2;ratioP2;P2;SDS_P1;SDS_P2;PMS_P1;PMS_P2;Temp;Humidity;BMP_temperature;BMP_pressure;BME280_temperature;BME280_humidity;BME280_pressure;Samples;Min_cycle;Max_cycle;Signal;HPM_P1;HPM_P2
2023/07/09 00:03:58;;;;;;;;;;;;;;;22.32;83.36;101628.38;10457232;28;19932;-63
2023/07/09 00:09:00;;;;;;;;;;;;;;;22.41;82.21;101622.16;10458102;28;19932;-63
2023/07/09 00:14:04;;;;;;;;;;;;;;;22.44;79.59;101614.72;10456286;28;19931;-63
2023/07/09 00:19:15;;;;;;;;;;;;;;;22.38;78.89;101617.13;10458119;28;20414;-63
2023/07/09 00:24:18;;;;;;;;;;;;;;;22.49;73.48;101608.91;10457775;28;19931;-63
2023/07/09 00:29:20;;;;;;;;;;;;;;;22.65;74.64;101620.81;10457864;28;20403;-63
2023/07/09 00:34:24;;;;;;;;;;;;;;;22.62;74.72;101619.25;10457469;28;19968;-63
2023/07/09 00:39:27;;;;;;;;;;;;;;;22.56;74.71;101619.84;10457211;28;20269;-63
2023/07/09 00:44:30;;;;;;;;;;;;;;;22.43;74.19;101623.69;10457491;28;19925;-63
2023/07/09 00:49:33;;;;;;;;;;;;;;;22.41;74.91;101623.00;10455711;28;20379;-63
2023/07/09 00:54:37;;;;;;;;;;;;;;;22.40;74.75;101620.47;10455794;28;20016;-63
2023/07/09 00:59:39;;;;;;;;;;;;;;;22.46;75.14;101627.91;10455448;28;20372;-63
2023/07/09 01:04:41;;;;;;;;;;;;;;;22.46;75.77;101627.91;10456666;28;20019;-63
2023/07/09 01:09:44;;;;;;;;;;;;;;;22.58;75.54;101625.91;10455360;28;20012;-63
2023/07/09 01:14:51;;;;;;;;;;;;;;;22.46;78.13;101627.91;10456432;28;20011;-63
2023/07/09 01:19:53;;;;;;;;;;;;;;;22.29;82.36;101624.16;10455860;28;19964;-63
2023/07/09 01:25:03;;;;;;;;;;;;;;;22.30;81.87;101622.34;10461943;28;20375;-63
2023/07/09 01:30:07;;;;;;;;;;;;;;;22.14;85.21;101614.91;10464295;28;20287;-63
2023/07/09 01:35:11;;;;;;;;;;;;;;;22.12;85.64;101612.38;10464205;28;19925;-63
2023/07/09 01:40:14;;;;;;;;;;;;;;;22.25;85.99;101610.22;10464029;28;19925;-63
2023/07/09 01:45:32;;;;;;;;;;;;;;;22.14;87.75;101621.09;10463722;28;19958;-62
2023/07/09 01:50:35;;;;;;;;;;;;;;;22.15;84.92;101617.41;10463970;28;19932;-63
2023/07/09 01:55:37;;;;;;;;;;;;;;;22.14;85.88;101618.44;10463517;28;20360;-63
2023/07/09 02:00:41;;;;;;;;;;;;;;;22.18;85.01;101621.63;10463414;28;19931;-63
2023/07/09 02:05:43;;;;;;;;;;;;;;;22.17;86.76;101628.78;10462796;28;19924;-63
2023/07/09 02:10:48;;;;;;;;;;;;;;;21.73;91.20;101623.09;10461645;28;19935;-63
2023/07/09 02:15:51;;;;;;;;;;;;;;;21.71;92.82;101627.72;10462679;28;19935;-63
2023/07/09 02:20:53;;;;;;;;;;;;;;;21.76;93.47;101633.47;10462590;28;19925;-63
2023/07/09 02:25:55;;;;;;;;;;;;;;;21.74;93.84;101637.25;10462146;28;19925;-63
2023/07/09 02:30:57;;;;;;;;;;;;;;;21.56;96.65;101643.28;10461972;28;19925;-63
2023/07/09 02:36:00;;;;;;;;;;;;;;;21.46;96.81;101650.41;10461356;28;20291;-63
2023/07/09 02:41:02;;;;;;;;;;;;;;;21.39;97.04;101652.78;10461477;28;19931;-64
2023/07/09 02:46:04;;;;;;;;;;;;;;;21.35;95.92;101654.06;10461270;28;19931;-63
2023/07/09 02:51:07;;;;;;;;;;;;;;;21.02;99.28;101658.72;10461394;28;19932;-63
2023/07/09 02:56:09;;;;;;;;;;;;;;;21.17;99.51;101653.88;10461073;28;19939;-63
2023/07/09 03:01:12;;;;;;;;;;;;;;;21.03;100.00;101655.09;10460524;28;19970;-64
2023/07/09 03:06:14;;;;;;;;;;;;;;;21.03;100.00;101654.22;10460522;28;20381;-63
2023/07/09 03:11:17;;;;;;;;;;;;;;;21.02;100.00;101661.38;10460385;28;20367;-64
2023/07/09 03:16:19;;;;;;;;;;;;;;;21.01;100.00;101649.03;10460381;28;19924;-63
2023/07/09 03:21:22;;;;;;;;;;;;;;;20.89;100.00;101650.97;10460113;28;19925;-63
2023/07/09 03:26:28;;;;;;;;;;;;;;;20.88;100.00;101651.97;10458728;28;19924;-63
2023/07/09 03:31:30;;;;;;;;;;;;;;;20.70;100.00;101658.91;10459497;28;19925;-63
2023/07/09 03:36:32;;;;;;;;;;;;;;;20.71;100.00;101657.91;10458132;28;19994;-64
2023/07/09 03:41:34;;;;;;;;;;;;;;;20.87;100.00;101658.25;10459186;28;19925;-63
2023/07/09 03:46:37;;;;;;;;;;;;;;;20.77;100.00;101652.06;10458149;28;19925;-63
2023/07/09 03:51:39;;;;;;;;;;;;;;;20.81;100.00;101658.78;10458961;28;19924;-63
2023/07/09 03:56:41;;;;;;;;;;;;;;;20.97;100.00;101663.63;10458536;28;19929;-64
2023/07/09 04:01:46;;;;;;;;;;;;;;;21.00;100.00;101662.50;10458457;28;19932;-63
2023/07/09 04:06:49;;;;;;;;;;;;;;;21.14;100.00;101654.97;10458267;28;19929;-63
2023/07/09 04:11:51;;;;;;;;;;;;;;;21.01;100.00;101658.84;10458011;28;20486;-63
2023/07/09 04:16:53;;;;;;;;;;;;;;;21.07;100.00;101658.31;10458019;28;19932;-63
2023/07/09 04:21:55;;;;;;;;;;;;;;;21.02;100.00;101658.72;10457695;28;19925;-63
2023/07/09 04:26:58;;;;;;;;;;;;;;;21.13;100.00;101660.44;10456478;28;19931;-63
2023/07/09 04:32:00;;;;;;;;;;;;;;;21.28;100.00;101656.44;10457498;28;20285;-63
2023/07/09 04:37:02;;;;;;;;;;;;;;;21.23;100.00;101660.47;10457312;28;19925;-63
2023/07/09 04:42:05;;;;;;;;;;;;;;;21.47;100.00;101644.97;10457053;28;19932;-64
2023/07/09 04:47:08;;;;;;;;;;;;;;;21.47;100.00;101657.47;10456005;28;19931;-64
2023/07/09 04:52:11;;;;;;;;;;;;;;;21.63;100.00;101654.22;10456988;28;19924;-63
2023/07/09 04:57:13;;;;;;;;;;;;;;;21.64;100.00;101653.28;10456476;28;19925;-63
2023/07/09 05:02:15;;;;;;;;;;;;;;;21.73;100.00;101659.56;10456740;28;19925;-64
2023/07/09 05:07:17;;;;;;;;;;;;;;;21.78;100.00;101662.66;10456487;28;20283;-63
2023/07/09 05:12:20;;;;;;;;;;;;;;;21.92;100.00;101664.88;10456647;28;19931;-63
2023/07/09 05:17:23;;;;;;;;;;;;;;;22.15;100.00;101664.59;10456319;28;19925;-63
2023/07/09 05:22:25;;;;;;;;;;;;;;;22.35;100.00;101666.25;10456548;28;19931;-63
2023/07/09 05:27:28;;;;;;;;;;;;;;;22.38;100.00;101660.63;10456126;28;20376;-63
2023/07/09 05:32:30;;;;;;;;;;;;;;;22.51;100.00;101665.66;10456107;28;19931;-64
2023/07/09 05:37:32;;;;;;;;;;;;;;;22.73;100.00;101668.94;10456187;28;20020;-63
2023/07/09 05:42:34;;;;;;;;;;;;;;;22.97;100.00;101663.91;10455715;28;19940;-63
2023/07/09 05:47:37;;;;;;;;;;;;;;;23.05;100.00;101663.19;10456053;28;19925;-64
2023/07/09 05:52:39;;;;;;;;;;;;;;;23.15;100.00;101660.50;10455888;28;19932;-63
2023/07/09 05:57:41;;;;;;;;;;;;;;;23.28;100.00;101657.44;10462768;23;19931;-62
2023/07/09 06:02:43;;;;;;;;;;;;;;;23.30;99.73;101664.34;10455592;28;19925;-63
2023/07/09 06:07:46;;;;;;;;;;;;;;;23.50;97.72;101669.53;10455456;28;19925;-62
2023/07/09 06:12:48;;;;;;;;;;;;;;;23.85;88.59;101665.22;10462105;28;19925;-62
2023/07/09 06:17:51;;;;;;;;;;;;;;;23.90;86.18;101671.75;10462577;28;19931;-62
2023/07/09 06:22:53;;;;;;;;;;;;;;;24.18;85.52;101676.16;10462287;28;19928;-62
2023/07/09 06:27:56;;;;;;;;;;;;;;;24.28;85.41;101683.09;10462221;28;19932;-62
2023/07/09 06:32:58;;;;;;;;;;;;;;;24.48;80.35;101685.56;10462110;28;20023;-62
2023/07/09 06:38:01;;;;;;;;;;;;;;;24.59;78.49;101685.31;10461808;28;20371;-62
2023/07/09 06:43:03;;;;;;;;;;;;;;;24.89;78.46;101684.97;10462034;28;20011;-62
2023/07/09 06:48:05;;;;;;;;;;;;;;;25.15;78.60;101688.41;10461595;28;19931;-63
2023/07/09 06:53:07;;;;;;;;;;;;;;;25.48;78.43;101693.06;10461347;28;19932;-63
2023/07/09 06:58:10;;;;;;;;;;;;;;;25.67;76.81;101684.72;10461309;28;19925;-63
2023/07/09 07:03:12;;;;;;;;;;;;;;;25.88;75.14;101686.88;10460765;28;20296;-63
2023/07/09 07:08:15;;;;;;;;;;;;;;;26.13;74.35;101687.75;10460671;28;19932;-63
2023/07/09 07:13:18;;;;;;;;;;;;;;;26.37;71.11;101691.41;10460635;28;20031;-63
2023/07/09 07:18:20;;;;;;;;;;;;;;;26.65;73.40;101691.03;10460359;28;19924;-69
2023/07/09 07:23:23;;;;;;;;;;;;;;;27.20;70.84;101686.59;10459874;28;19943;-69
2023/07/09 07:28:25;;;;;;;;;;;;;;;27.39;70.57;101672.75;10459840;28;20302;-66
2023/07/09 07:33:27;;;;;;;;;;;;;;;27.97;71.10;101677.72;10459548;28;20371;-78
2023/07/09 07:38:29;;;;;;;;;;;;;;;28.37;68.03;101680.19;10459449;28;19925;-78
2023/07/09 07:43:32;;;;;;;;;;;;;;;28.13;66.05;101671.34;10459223;28;19925;-78
2023/07/09 07:48:34;;;;;;;;;;;;;;;28.61;65.03;101673.72;10459278;28;19931;-79
2023/07/09 07:53:36;;;;;;;;;;;;;;;28.97;65.97;101667.56;10458833;28;19946;-79
2023/07/09 07:58:38;;;;;;;;;;;;;;;29.08;62.46;101669.75;10458447;28;19924;-79
2023/07/09 08:03:41;;;;;;;;;;;;;;;29.48;62.95;101662.13;10458355;28;20275;-76
2023/07/09 08:08:43;;;;;;;;;;;;;;;29.99;62.93;101659.28;10458208;28;20249;-73
2023/07/09 08:13:45;;;;;;;;;;;;;;;30.22;60.11;101654.66;10458150;28;19929;-74
2023/07/09 08:18:47;;;;;;;;;;;;;;;30.83;62.62;101653.97;10440315;28;19928;-74
2023/07/09 08:23:51;;;;;;;;;;;;;;;31.02;59.90;101661.34;10457587;28;19925;-73
2023/07/09 08:28:54;;;;;;;;;;;;;;;31.29;56.72;101658.72;10457466;28;19950;-73
2023/07/09 08:33:56;;;;;;;;;;;;;;;31.50;56.17;101652.28;10456723;28;20291;-74
2023/07/09 08:38:58;;;;;;;;;;;;;;;31.98;58.03;101656.69;10457392;28;19931;-73
2023/07/09 08:44:10;;;;;;;;;;;;;;;31.51;54.45;101651.28;10439292;28;20390;-73
2023/07/09 08:49:14;;;;;;;;;;;;;;;31.66;53.45;101654.63;10439421;28;19929;-74
2023/07/09 08:54:25;;;;;;;;;;;;;;;32.43;54.55;101656.84;10456741;28;20113;-73
2023/07/09 08:59:30;;;;;;;;;;;;;;;32.61;51.44;101642.63;10439590;28;19971;-73
2023/07/09 09:04:34;;;;;;;;;;;;;;;32.37;49.19;101644.16;10422612;28;20294;-72
2023/07/09 09:09:38;;;;;;;;;;;;;;;32.63;49.27;101645.13;10438842;28;19932;-72
2023/07/09 09:14:44;;;;;;;;;;;;;;;33.24;48.59;101646.53;10439175;28;19976;-78
2023/07/09 09:19:48;;;;;;;;;;;;;;;33.47;47.74;101635.06;10438722;28;19924;-75
2023/07/09 09:24:55;;;;;;;;;;;;;;;33.86;46.24;101631.22;10422464;28;20039;-75
2023/07/09 09:29:57;;;;;;;;;;;;;;;33.10;45.70;101629.44;10438636;28;19924;-80
2023/07/09 09:35:10;;;;;;;;;;;;;;;33.83;46.74;101620.81;10456232;28;19932;-81
2023/07/09 09:40:12;;;;;;;;;;;;;;;34.99;45.82;101620.13;10438467;28;20089;-81
2023/07/09 09:45:20;;;;;;;;;;;;;;;34.53;46.77;101626.97;10460476;28;20402;-81
2023/07/09 09:50:22;;;;;;;;;;;;;;;34.74;42.52;101628.41;10446678;28;20120;-84
2023/07/09 09:55:27;;;;;;;;;;;;;;;34.64;43.96;101633.53;10446214;28;20347;-84
2023/07/09 10:00:33;;;;;;;;;;;;;;;35.38;42.96;101620.59;10446131;28;19931;-83
2023/07/09 10:05:38;;;;;;;;;;;;;;;35.18;41.90;101623.59;10445800;28;19924;-84
2023/07/09 10:10:40;;;;;;;;;;;;;;;35.61;43.18;101622.50;10445244;28;19947;-84
2023/07/09 10:15:44;;;;;;;;;;;;;;;35.38;43.39;101608.88;10445543;28;19925;-85
2023/07/09 10:20:57;;;;;;;;;;;;;;;36.20;42.14;101597.16;10445283;28;19924;-84
2023/07/09 10:26:13;;;;;;;;;;;;;;;36.61;42.88;101590.63;10462681;28;19931;-84
2023/07/09 10:31:21;;;;;;;;;;;;;;;35.66;41.97;101592.69;10445495;28;19924;-83
2023/07/09 10:36:32;;;;;;;;;;;;;;;36.04;41.66;101587.81;10444656;28;19982;-83
2023/07/09 10:41:35;;;;;;;;;;;;;;;36.13;40.80;101591.84;10462640;28;19925;-83
2023/07/09 10:46:38;;;;;;;;;;;;;;;36.77;39.55;101588.25;10444319;28;20300;-83
2023/07/09 10:51:43;;;;;;;;;;;;;;;36.24;38.89;101585.53;10444275;28;19932;-84
2023/07/09 10:56:47;;;;;;;;;;;;;;;37.69;38.27;101588.97;10442819;28;19925;-83
2023/07/09 11:01:50;;;;;;;;;;;;;;;37.17;37.60;101598.19;10445875;28;20261;-84
2023/07/09 11:06:53;;;;;;;;;;;;;;;37.23;38.17;101590.97;10446051;28;19987;-84
2023/07/09 11:11:56;;;;;;;;;;;;;;;37.12;36.46;101601.69;10444669;28;19931;-84
2023/07/09 11:17:00;;;;;;;;;;;;;;;37.88;36.62;101581.31;10443422;28;20043;-84
2023/07/09 11:22:07;;;;;;;;;;;;;;;37.65;37.93;101571.41;10460893;28;19924;-84
2023/07/09 11:27:26;;;;;;;;;;;;;;;38.86;37.39;101560.59;10442942;28;19964;-84
2023/07/09 11:32:28;;;;;;;;;;;;;;;38.29;38.89;101552.59;10442156;28;20008;-84
2023/07/09 11:37:31;;;;;;;;;;;;;;;36.89;37.20;101550.81;10459837;28;19925;-84
2023/07/09 11:42:34;;;;;;;;;;;;;;;36.53;35.78;101560.19;10460058;28;19928;-84
2023/07/09 11:47:46;;;;;;;;;;;;;;;37.80;37.78;101579.84;10459454;28;20008;-83
2023/07/09 11:52:51;;;;;;;;;;;;;;;36.97;34.93;101574.09;10459089;28;19925;-82
2023/07/09 11:57:57;;;;;;;;;;;;;;;37.50;35.99;101580.19;10441070;28;19937;-84
2023/07/09 12:02:59;;;;;;;;;;;;;;;37.08;37.98;101586.03;10440901;28;20046;-83
2023/07/09 12:08:02;;;;;;;;;;;;;;;37.16;37.49;101577.44;10439748;28;19931;-84
2023/07/09 12:13:04;;;;;;;;;;;;;;;37.39;40.17;101568.31;10458147;28;19925;-83
2023/07/09 12:18:10;;;;;;;;;;;;;;;37.67;36.30;101570.09;10440425;28;20023;-83
2023/07/09 12:23:23;;;;;;;;;;;;;;;36.68;41.05;101576.03;10457931;28;19925;-84
2023/07/09 12:28:26;;;;;;;;;;;;;;;36.88;39.93;101573.69;10440213;28;19925;-84
2023/07/09 12:33:28;;;;;;;;;;;;;;;36.65;37.45;101558.22;10439735;28;19929;-83
2023/07/09 12:38:33;;;;;;;;;;;;;;;36.44;39.08;101567.94;10457562;28;20015;-84
2023/07/09 12:43:35;;;;;;;;;;;;;;;35.99;39.81;101555.81;10439552;28;19925;-84
2023/07/09 12:48:37;;;;;;;;;;;;;;;35.82;42.75;101546.75;10439694;28;19979;-84
2023/07/09 12:53:39;;;;;;;;;;;;;;;35.21;44.66;101527.06;10457071;28;19931;-84
2023/07/09 12:58:42;;;;;;;;;;;;;;;36.01;42.87;101526.47;10457020;28;19931;-84
2023/07/09 13:03:55;;;;;;;;;;;;;;;35.88;39.76;101515.84;10457537;28;19979;-84
2023/07/09 13:08:58;;;;;;;;;;;;;;;35.59;43.90;101515.72;10456797;28;19925;-84
2023/07/09 13:14:05;;;;;;;;;;;;;;;35.82;44.25;101506.72;10439740;28;19931;-84
2023/07/09 13:19:07;;;;;;;;;;;;;;;36.06;43.69;101503.91;10442505;28;20435;-83
2023/07/09 13:24:12;;;;;;;;;;;;;;;35.16;43.42;101512.25;10466230;28;19929;-83
2023/07/09 13:29:15;;;;;;;;;;;;;;;35.28;44.65;101516.91;10432949;28;19935;-83
2023/07/09 13:34:24;;;;;;;;;;;;;;;33.33;47.13;101517.66;10432855;28;19924;-83
2023/07/09 13:39:26;;;;;;;;;;;;;;;32.79;48.80;101510.97;10446923;28;19924;-84
2023/07/09 13:44:33;;;;;;;;;;;;;;;33.10;48.77;101520.94;10464293;28;20387;-83
2023/07/09 13:49:35;;;;;;;;;;;;;;;32.42;49.44;101521.56;10464525;28;19956;-83
2023/07/09 13:54:37;;;;;;;;;;;;;;;32.24;52.17;101535.81;10463669;28;20020;-83
2023/07/09 13:59:40;;;;;;;;;;;;;;;32.30;54.22;101557.47;10463623;28;19967;-66
2023/07/09 14:04:42;;;;;;;;;;;;;;;31.48;56.39;101554.25;10463298;28;19925;-73
2023/07/09 14:09:44;;;;;;;;;;;;;;;30.69;58.26;101553.09;10462898;28;19951;-66
2023/07/09 14:14:47;;;;;;;;;;;;;;;30.14;59.57;101540.38;10444986;28;19928;-66
2023/07/09 14:19:50;;;;;;;;;;;;;;;29.58;60.90;101562.81;10445259;28;19947;-66
2023/07/09 14:24:53;;;;;;;;;;;;;;;29.77;59.00;101547.00;10462383;28;19947;-66
2023/07/09 14:29:55;;;;;;;;;;;;;;;29.73;58.70;101541.13;10461158;28;19932;-66
2023/07/09 14:34:57;;;;;;;;;;;;;;;29.14;59.99;101550.38;10461932;28;19924;-66
2023/07/09 14:39:59;;;;;;;;;;;;;;;28.93;60.73;101563.84;10461686;28;19940;-66
2023/07/09 14:45:03;;;;;;;;;;;;;;;28.65;60.25;101662.41;10443868;28;19924;-66
2023/07/09 14:50:06;;;;;;;;;;;;;;;28.59;61.22;101708.09;10461750;28;20019;-66
2023/07/09 14:55:13;;;;;;;;;;;;;;;27.53;69.37;101751.81;10461233;28;19924;-65
2023/07/09 15:00:17;;;;;;;;;;;;;;;25.54;96.69;101773.66;10460760;28;19957;-68
2023/07/09 15:05:23;;;;;;;;;;;;;;;25.46;100.00;101768.28;10443210;28;19925;-72
2023/07/09 15:10:28;;;;;;;;;;;;;;;25.47;100.00;101727.06;10443215;28;19925;-73
2023/07/09 15:15:31;;;;;;;;;;;;;;;25.47;100.00;101720.84;10443234;28;20425;-72
2023/07/09 15:20:33;;;;;;;;;;;;;;;24.83;100.00;101737.31;10459160;28;20356;-70
2023/07/09 15:25:35;;;;;;;;;;;;;;;24.40;100.00;101824.69;10460198;28;19931;-70
2023/07/09 15:30:38;;;;;;;;;;;;;;;25.19;100.00;101865.78;10459851;28;19925;-68
2023/07/09 15:35:40;;;;;;;;;;;;;;;25.42;100.00;101866.13;10442270;28;19931;-69
2023/07/09 15:40:42;;;;;;;;;;;;;;;24.85;100.00;101807.66;10459191;28;20015;-73
2023/07/09 15:45:46;;;;;;;;;;;;;;;25.13;100.00;101730.63;10459251;28;20023;-74
2023/07/09 15:50:48;;;;;;;;;;;;;;;25.15;100.00;101684.88;10441551;28;19924;-73
2023/07/09 15:55:51;;;;;;;;;;;;;;;25.71;100.00;101696.78;10458717;28;19931;-72
2023/07/09 16:00:55;;;;;;;;;;;;;;;25.38;100.00;101694.03;10440471;28;20321;-70
2023/07/09 16:05:57;;;;;;;;;;;;;;;25.50;100.00;101697.25;10440631;28;19925;-71
2023/07/09 16:10:59;;;;;;;;;;;;;;;25.46;100.00;101701.25;10458521;28;19971;-69
2023/07/09 16:16:02;;;;;;;;;;;;;;;25.20;100.00;101698.63;10458223;28;20016;-68
2023/07/09 16:21:06;;;;;;;;;;;;;;;25.75;100.00;101698.09;10457793;28;19929;-70
2023/07/09 16:26:08;;;;;;;;;;;;;;;25.77;100.00;101698.81;10457625;28;20376;-70
2023/07/09 16:31:10;;;;;;;;;;;;;;;25.57;100.00;101687.53;10457672;28;19928;-68
2023/07/09 16:36:13;;;;;;;;;;;;;;;25.84;100.00;101679.34;10457534;28;19925;-69
2023/07/09 16:41:17;;;;;;;;;;;;;;;25.48;100.00;101693.06;10439864;28;19924;-69
2023/07/09 16:46:20;;;;;;;;;;;;;;;25.07;100.00;101701.78;10457114;28;20007;-69
2023/07/09 16:51:25;;;;;;;;;;;;;;;25.57;100.00;101695.59;10439746;28;20340;-69
2023/07/09 16:56:27;;;;;;;;;;;;;;;25.35;100.00;101689.00;10456327;28;19925;-70
2023/07/09 17:01:30;;;;;;;;;;;;;;;25.97;100.00;101692.28;10456458;28;20392;-70
2023/07/09 17:06:35;;;;;;;;;;;;;;;25.04;100.00;101700.25;10456560;28;19925;-70
2023/07/09 17:11:38;;;;;;;;;;;;;;;25.43;100.00;101703.44;10456514;28;19931;-70
2023/07/09 17:16:40;;;;;;;;;;;;;;;25.49;100.00;101716.19;10438748;28;19932;-70
2023/07/09 17:21:44;;;;;;;;;;;;;;;25.64;100.00;101735.13;10456346;28;20265;-71
2023/07/09 17:26:46;;;;;;;;;;;;;;;25.88;100.00;101750.44;10438765;28;19925;-71
2023/07/09 17:31:49;;;;;;;;;;;;;;;25.49;100.00;101770.63;10456119;28;20265;-71
2023/07/09 17:36:51;;;;;;;;;;;;;;;25.06;100.00;101772.44;10456191;28;19932;-71
2023/07/09 17:41:53;;;;;;;;;;;;;;;25.48;100.00;101773.47;10455722;28;20290;-71
2023/07/09 17:46:56;;;;;;;;;;;;;;;25.53;100.00;101765.78;10456043;28;19931;-71
2023/07/09 17:51:58;;;;;;;;;;;;;;;25.00;100.00;101776.59;10455706;28;19978;-70
2023/07/09 17:57:00;;;;;;;;;;;;;;;24.82;100.00;101791.88;10455438;28;20380;-70
2023/07/09 18:02:35;;;;;;;;;;;;;;;24.83;100.00;101797.09;10455514;28;19931;-71
2023/07/09 18:07:37;;;;;;;;;;;;;;;24.55;100.00;101792.88;10439206;28;19932;-70
2023/07/09 18:12:40;;;;;;;;;;;;;;;24.72;100.00;101794.66;10452730;22;19933;-65
2023/07/09 18:17:42;;;;;;;;;;;;;;;24.74;100.00;101798.03;10462782;28;19947;-65
2023/07/09 18:22:44;;;;;;;;;;;;;;;24.63;100.00;101804.47;10462524;28;20391;-66
2023/07/09 18:27:49;;;;;;;;;;;;;;;24.18;100.00;101793.88;10462522;28;19925;-66
2023/07/09 18:32:55;;;;;;;;;;;;;;;23.83;100.00;101784.84;10462610;28;19932;-65
2023/07/09 18:37:58;;;;;;;;;;;;;;;23.86;100.00;101773.84;10460971;28;19963;-65
2023/07/09 18:43:00;;;;;;;;;;;;;;;23.97;100.00;101781.63;10461609;28;19932;-65
2023/07/09 18:48:13;;;;;;;;;;;;;;;24.30;100.00;101789.97;10461373;28;20008;-66
2023/07/09 18:53:15;;;;;;;;;;;;;;;24.15;100.00;101776.28;10461391;28;19929;-66
2023/07/09 18:58:21;;;;;;;;;;;;;;;24.06;100.00;101759.34;10461679;28;19955;-66
2023/07/09 19:03:27;;;;;;;;;;;;;;;23.80;100.00;101763.72;10460013;28;19925;-65
2023/07/09 19:08:29;;;;;;;;;;;;;;;23.69;100.00;101772.81;10459599;28;20375;-65
2023/07/09 19:13:34;;;;;;;;;;;;;;;23.72;100.00;101780.50;10459185;28;19928;-65
2023/07/09 19:18:44;;;;;;;;;;;;;;;23.55;100.00;101769.66;10460457;28;19931;-66
2023/07/09 19:23:46;;;;;;;;;;;;;;;23.63;100.00;101758.19;10460400;28;19960;-66
2023/07/09 19:28:49;;;;;;;;;;;;;;;23.30;100.00;101748.97;10459894;28;19924;-66
2023/07/09 19:33:52;;;;;;;;;;;;;;;23.05;100.00;101748.66;10475513;28;19948;-65
2023/07/09 19:38:55;;;;;;;;;;;;;;;23.12;100.00;101756.94;10458527;28;19925;-65
2023/07/09 19:43:57;;;;;;;;;;;;;;;22.91;100.00;101776.63;10460149;28;19964;-65
2023/07/09 19:48:59;;;;;;;;;;;;;;;22.82;100.00;101788.22;10459053;28;19981;-65
2023/07/09 19:54:08;;;;;;;;;;;;;;;22.81;100.00;101781.16;10458930;28;20288;-65
2023/07/09 19:59:11;;;;;;;;;;;;;;;22.82;100.00;101797.03;10458121;28;19956;-65
2023/07/09 20:04:13;;;;;;;;;;;;;;;22.80;100.00;101815.03;10458618;28;20386;-65
2023/07/09 20:09:16;;;;;;;;;;;;;;;22.70;100.00;101827.56;10458287;28;19929;-65
2023/07/09 20:14:19;;;;;;;;;;;;;;;22.84;100.00;101828.94;10458184;28;19924;-65
2023/07/09 20:19:21;;;;;;;;;;;;;;;22.69;100.00;101814.38;10458034;28;19924;-65
2023/07/09 20:24:24;;;;;;;;;;;;;;;22.68;100.00;101832.22;10457979;28;19924;-65
2023/07/09 20:29:26;;;;;;;;;;;;;;;22.78;100.00;101843.72;10456781;28;20406;-65
2023/07/09 20:34:28;;;;;;;;;;;;;;;22.51;100.00;101847.13;10457554;28;19931;-65
2023/07/09 20:39:31;;;;;;;;;;;;;;;22.37;100.00;101840.34;10456142;28;19925;-65
2023/07/09 20:44:34;;;;;;;;;;;;;;;22.43;100.00;101837.13;10457428;28;20294;-65
2023/07/09 20:49:36;;;;;;;;;;;;;;;22.35;100.00;101837.00;10455884;28;19929;-65
2023/07/09 20:54:39;;;;;;;;;;;;;;;22.22;100.00;101825.72;10455977;28;19931;-66
2023/07/09 20:59:41;;;;;;;;;;;;;;;22.07;100.00;101846.63;10457030;28;19931;-65
2023/07/09 21:04:43;;;;;;;;;;;;;;;22.43;100.00;101828.31;10456671;28;19924;-65
2023/07/09 21:09:46;;;;;;;;;;;;;;;22.19;100.00;101829.53;10455485;28;19936;-65
2023/07/09 21:14:48;;;;;;;;;;;;;;;22.05;100.00;101832.59;10456510;28;19925;-66
2023/07/09 21:19:50;;;;;;;;;;;;;;;22.27;100.00;101844.81;10456644;28;19925;-66
2023/07/09 21:24:55;;;;;;;;;;;;;;;22.30;100.00;101843.75;10455499;28;20000;-66
2023/07/09 21:29:58;;;;;;;;;;;;;;;22.29;100.00;101848.22;10456480;28;19924;-66
2023/07/09 21:35:00;;;;;;;;;;;;;;;21.93;100.00;101833.69;10456209;28;19925;-66
2023/07/09 21:40:10;;;;;;;;;;;;;;;21.84;100.00;101843.38;10440949;28;19925;-65
2023/07/09 21:45:13;;;;;;;;;;;;;;;21.55;100.00;101864.56;10462827;28;20315;-65
2023/07/09 21:50:17;;;;;;;;;;;;;;;21.56;100.00;101867.09;10463860;28;19925;-65
2023/07/09 21:55:21;;;;;;;;;;;;;;;21.48;100.00;101865.09;10463887;28;19932;-65
2023/07/09 22:00:24;;;;;;;;;;;;;;;21.74;100.00;101853.13;10464108;28;19932;-65
2023/07/09 22:05:27;;;;;;;;;;;;;;;21.74;100.00;101854.00;10463164;28;20375;-65
2023/07/09 22:10:33;;;;;;;;;;;;;;;21.81;100.00;101852.47;10462950;28;20282;-65
2023/07/09 22:15:36;;;;;;;;;;;;;;;21.75;100.00;101860.16;10462880;28;19929;-65
2023/07/09 22:20:39;;;;;;;;;;;;;;;21.81;100.00;101862.28;10461609;28;20257;-65
2023/07/09 22:25:41;;;;;;;;;;;;;;;21.80;100.00;101860.59;10462542;28;20016;-65
2023/07/09 22:30:43;;;;;;;;;;;;;;;21.53;100.00;101880.69;10462465;28;19925;-65
2023/07/09 22:35:46;;;;;;;;;;;;;;;21.67;100.00;101861.69;10461094;28;20287;-65
2023/07/09 22:40:48;;;;;;;;;;;;;;;21.46;100.00;101858.19;10461186;28;19931;-65
2023/07/09 22:45:50;;;;;;;;;;;;;;;21.26;100.00;101879.41;10461651;28;19931;-65
2023/07/09 22:50:55;;;;;;;;;;;;;;;21.34;100.00;101882.25;10460682;28;19929;-65
2023/07/09 22:55:58;;;;;;;;;;;;;;;21.40;100.00;101872.03;10460861;28;19925;-65
2023/07/09 23:01:02;;;;;;;;;;;;;;;21.25;100.00;101882.19;10461132;28;20330;-66
2023/07/09 23:06:13;;;;;;;;;;;;;;;21.18;100.00;101887.19;10459941;28;19971;-66
2023/07/09 23:11:19;;;;;;;;;;;;;;;21.27;100.00;101890.91;10460509;28;19925;-66
2023/07/09 23:16:23;;;;;;;;;;;;;;;21.08;100.00;101876.50;10459661;28;20011;-66
2023/07/09 23:21:25;;;;;;;;;;;;;;;21.33;100.00;101885.03;10460402;28;19932;-66
2023/07/09 23:26:28;;;;;;;;;;;;;;;21.23;100.00;101885.03;10459988;28;19931;-66
2023/07/09 23:31:30;;;;;;;;;;;;;;;21.16;100.00;101894.47;10460127;28;20015;-66
2023/07/09 23:36:33;;;;;;;;;;;;;;;21.19;100.00;101888.91;10458592;28;19931;-65
2023/07/09 23:41:36;;;;;;;;;;;;;;;21.11;100.00;101886.03;10459886;28;19925;-65
2023/07/09 23:46:39;;;;;;;;;;;;;;;21.13;100.00;101900.94;10458502;28;20386;-65
2023/07/09 23:51:41;;;;;;;;;;;;;;;21.32;100.00;101894.88;10459172;28;19925;-65
2023/07/09 23:56:44;;;;;;;;;;;;;;;21.14;100.00;101893.78;10459119;28;19925;-66
